Rheinfels — V2AI4 — position and weather

sailwx.info

Track history (hours):
 
Tides and Currents Weather Stations Pressure Air Temp Water Temp Dewpoint Dewpoint Depression Visibility Wind Speed Wind Dir Waves Ship Positions

Rheinfels

Last reported at 2015-Jun-27 05:19 UTC. Time now 2015-Jul-05 12:55 UTC.
Position N 35°47' W 008°40'.
Warning: this ship's position is 8 days out of date.

Length 89 m; draft 5.7 m.

Type: Cargo ship. MMSI: 304010767.

Date/timePositionNaut miles runAvg speedWind from/ knotsBaromVisibWave heightAir tempDewpointWater temp
2015-Jun-27 05:19N 35°47' W 008°40'6 7.8
2015-Jun-27 04:33N 35°52' W 008°43'8 8.0
2015-Jun-27 03:33N 35°59' W 008°47'8 8.2
2015-Jun-27 02:33N 36°07' W 008°51'8 8.5
2015-Jun-27 01:33N 36°15' W 008°56'9 8.6
2015-Jun-27 00:33N 36°22' W 009°00'9 8.5
2015-Jun-26 23:33N 36°30' W 009°05'9 8.5
2015-Jun-26 22:33N 36°32' W 009°15'8 8.3
2015-Jun-26 21:33N 36°38' W 009°23'8 8.2
2015-Jun-26 20:33N 36°44' W 009°30'8 8.2
2015-Jun-26 19:33N 36°51' W 009°35'8 8.5
2015-Jun-26 18:33N 36°59' W 009°38'9 8.9
2015-Jun-26 17:33N 37°08' W 009°40'9 9.1
2015-Jun-26 16:33N 37°17' W 009°42'9 9.3
2015-Jun-26 15:33N 37°26' W 009°44'9 9.4
2015-Jun-26 14:33N 37°35' W 009°47'9 9.2
2015-Jun-26 13:33N 37°44' W 009°49'9 9.4
2015-Jun-26 12:33N 37°53' W 009°52'9 9.2
2015-Jun-26 11:33N 38°02' W 009°54'9 9.3
2015-Jun-26 10:33N 38°11' W 009°56'9 9.1
2015-Jun-26 09:33N 38°20' W 009°59'1110.4
2015-Jun-26 08:32N 38°30' W 010°02'9 8.8
2015-Jun-26 07:32N 38°39' W 010°04'9 8.9
2015-Jun-26 06:33N 38°48' W 010°05'9 8.7
2015-Jun-26 05:33N 38°56' W 010°02'19 9.3
2015-Jun-26 03:33N 39°13' W 009°53'10 9.8
2015-Jun-26 02:33N 39°22' W 009°48'10 9.5
2015-Jun-26 01:31N 39°31' W 009°43'28 9.5
2015-Jun-25 22:31N 39°51' W 009°16'  
2015-Jun-21 17:22N 40°09' W 008°56'0 0.0
2015-Jun-21 08:28N 40°09' W 008°56'5 5.9
2015-Jun-21 07:33N 40°14' W 008°58'9 9.0
2015-Jun-21 06:33N 40°23' W 009°02'9 9.0
2015-Jun-21 05:34N 40°31' W 009°05'9 9.0
2015-Jun-21 04:33N 40°40' W 009°09'9 9.1
2015-Jun-21 03:33N 40°49' W 009°12'147 8.5
2015-Jun-20 10:17N 43°10' W 010°06'49 8.2
2015-Jun-20 04:17N 43°56' W 009°44'  
Track history (hours):
 
Tides and Currents Weather Stations Pressure Air Temp Water Temp Dewpoint Dewpoint Depression Visibility Wind Speed Wind Dir Waves Ship Positions

Rheinfels

Last reported at 2015-Jun-27 05:19 UTC. Time now 2015-Jul-05 12:55 UTC.
Position N 35°47' W 008°40'.
Warning: this ship's position is 8 days out of date.

Length 89 m; draft 5.7 m.

Type: Cargo ship. MMSI: 304010767.

Date/timePositionNaut miles runAvg speedWind from/ knotsBaromVisibWave heightAir tempDewpointWater temp
2015-Jun-27 05:19N 35°47' W 008°40'6 7.8
2015-Jun-27 04:33N 35°52' W 008°43'8 8.0
2015-Jun-27 03:33N 35°59' W 008°47'8 8.2
2015-Jun-27 02:33N 36°07' W 008°51'8 8.5
2015-Jun-27 01:33N 36°15' W 008°56'9 8.6
2015-Jun-27 00:33N 36°22' W 009°00'9 8.5
2015-Jun-26 23:33N 36°30' W 009°05'9 8.5
2015-Jun-26 22:33N 36°32' W 009°15'8 8.3
2015-Jun-26 21:33N 36°38' W 009°23'8 8.2
2015-Jun-26 20:33N 36°44' W 009°30'8 8.2
2015-Jun-26 19:33N 36°51' W 009°35'8 8.5
2015-Jun-26 18:33N 36°59' W 009°38'9 8.9
2015-Jun-26 17:33N 37°08' W 009°40'9 9.1
2015-Jun-26 16:33N 37°17' W 009°42'9 9.3
2015-Jun-26 15:33N 37°26' W 009°44'9 9.4
2015-Jun-26 14:33N 37°35' W 009°47'9 9.2
2015-Jun-26 13:33N 37°44' W 009°49'9 9.4
2015-Jun-26 12:33N 37°53' W 009°52'9 9.2
2015-Jun-26 11:33N 38°02' W 009°54'9 9.3
2015-Jun-26 10:33N 38°11' W 009°56'9 9.1
2015-Jun-26 09:33N 38°20' W 009°59'1110.4
2015-Jun-26 08:32N 38°30' W 010°02'9 8.8
2015-Jun-26 07:32N 38°39' W 010°04'9 8.9
2015-Jun-26 06:33N 38°48' W 010°05'9 8.7
2015-Jun-26 05:33N 38°56' W 010°02'19 9.3
2015-Jun-26 03:33N 39°13' W 009°53'10 9.8
2015-Jun-26 02:33N 39°22' W 009°48'10 9.5
2015-Jun-26 01:31N 39°31' W 009°43'28 9.5
2015-Jun-25 22:31N 39°51' W 009°16'  
2015-Jun-21 17:22N 40°09' W 008°56'0 0.0
2015-Jun-21 08:28N 40°09' W 008°56'5 5.9
2015-Jun-21 07:33N 40°14' W 008°58'9 9.0
2015-Jun-21 06:33N 40°23' W 009°02'9 9.0
2015-Jun-21 05:34N 40°31' W 009°05'9 9.0
2015-Jun-21 04:33N 40°40' W 009°09'9 9.1
2015-Jun-21 03:33N 40°49' W 009°12'147 8.5
2015-Jun-20 10:17N 43°10' W 010°06'49 8.2
2015-Jun-20 04:17N 43°56' W 009°44'  

Dump ship's entire track history